Time;durP1;ratioP1;P1;durP2;ratioP2;P2;SDS_P1;SDS_P2;PMS_P1;PMS_P2;Temp;Humidity;BMP_temperature;BMP_pressure;BME280_temperature;BME280_humidity;BME280_pressure;Samples;Min_cycle;Max_cycle;Signal;HPM_P1;HPM_P2
2022/07/18 06:20:24;;;;;;;;;10.25;8.25;;;;;24.69;43.07;101792.34;5123675;27;1498358;-79
2022/07/18 06:22:50;;;;;;;;;10.50;9.00;;;;;24.92;42.81;101786.22;5154483;27;45695;-78
2022/07/18 06:25:16;;;;;;;;;10.50;10.50;;;;;25.13;41.89;101783.56;5155882;27;45233;-78
2022/07/18 06:27:41;;;;;;;;;12.75;10.25;;;;;25.34;41.95;101793.25;5155595;27;45232;-78
2022/07/18 06:30:09;;;;;;;;;12.00;10.50;;;;;25.56;41.29;101787.94;5155475;27;45786;-76
2022/07/18 06:32:35;;;;;;;;;9.75;8.00;;;;;25.77;40.55;101794.06;5155157;27;45463;-75
2022/07/18 06:35:01;;;;;;;;;11.50;11.25;;;;;25.91;40.84;101800.22;5155902;27;45467;-77
2022/07/18 06:37:29;;;;;;;;;8.50;8.50;;;;;26.08;40.83;101792.22;5142664;27;45368;-81
2022/07/18 06:39:55;;;;;;;;;11.00;10.00;;;;;26.25;39.73;101802.78;5135925;27;45393;-80
2022/07/18 06:42:20;;;;;;;;;11.00;9.00;;;;;26.39;39.68;101796.53;5140763;27;45302;-83
2022/07/18 06:44:46;;;;;;;;;11.75;8.25;;;;;26.51;39.50;101791.13;5135483;27;45321;-84
2022/07/18 06:47:11;;;;;;;;;11.25;9.75;;;;;26.63;39.16;101784.88;5135201;27;45623;-82
2022/07/18 06:49:37;;;;;;;;;11.00;11.00;;;;;26.75;38.77;101794.50;5134276;27;46134;-86
2022/07/18 06:52:03;;;;;;;;;10.25;9.75;;;;;26.83;38.98;101784.75;5143896;27;45432;-84
2022/07/18 06:54:29;;;;;;;;;9.50;7.75;;;;;26.92;38.86;101798.88;5155388;27;45269;-83
2022/07/18 06:56:55;;;;;;;;;10.75;9.75;;;;;26.96;37.95;101792.63;5155376;27;45435;-79
2022/07/18 06:59:21;;;;;;;;;10.25;9.25;;;;;27.02;38.36;101800.56;5155206;27;45936;-83
2022/07/18 07:01:47;;;;;;;;;12.00;9.00;;;;;27.12;37.72;101814.63;5155723;27;45430;-81
2022/07/18 07:04:13;;;;;;;;;9.50;7.50;;;;;27.15;37.87;101807.53;5155814;27;45399;-82
2022/07/18 07:06:38;;;;;;;;;10.75;9.75;;;;;27.25;38.00;101807.44;5155343;27;45361;-81
2022/07/18 07:09:07;;;;;;;;;12.00;10.50;;;;;27.30;37.59;101803.84;5156170;27;45431;-82
2022/07/18 07:11:33;;;;;;;;;11.00;9.25;;;;;27.37;37.21;101803.78;5155880;27;45336;-82
2022/07/18 07:13:58;;;;;;;;;7.75;7.75;;;;;27.40;37.23;101804.63;5155428;27;45352;-84
2022/07/18 07:16:24;;;;;;;;;10.00;7.75;;;;;27.43;36.96;101796.63;5155349;27;45569;-82
2022/07/18 07:18:50;;;;;;;;;9.50;8.00;;;;;27.48;37.23;101797.47;5153898;27;45505;-81
2022/07/18 07:21:15;;;;;;;;;11.25;8.75;;;;;27.53;36.39;101796.56;5154581;27;45798;-81
2022/07/18 07:23:41;;;;;;;;;9.25;9.25;;;;;27.57;36.42;101795.66;5154927;27;45491;-80
2022/07/18 07:26:07;;;;;;;;;10.50;10.00;;;;;27.58;36.50;101794.75;5156442;27;45326;-80
2022/07/18 07:28:33;;;;;;;;;8.50;8.50;;;;;27.60;36.40;101788.50;5154608;27;46174;-80
2022/07/18 07:30:59;;;;;;;;;10.00;9.50;;;;;27.65;36.67;101799.97;5144793;27;45534;-80
2022/07/18 07:33:25;;;;;;;;;12.00;9.25;;;;;27.65;35.92;101788.47;5140925;27;45346;-81
2022/07/18 07:35:51;;;;;;;;;10.50;8.25;;;;;27.63;36.52;101785.81;5141082;27;45191;-80
2022/07/18 07:38:19;;;;;;;;;10.50;8.00;;;;;27.72;36.21;101784.81;5140400;27;45250;-80
2022/07/18 07:40:47;;;;;;;;;13.00;10.50;;;;;27.78;36.40;101784.75;5140521;27;45831;-81
2022/07/18 07:43:14;;;;;;;;;8.75;8.00;;;;;27.83;36.24;101778.50;5140974;27;45358;-80
2022/07/18 07:45:41;;;;;;;;;8.00;7.50;;;;;27.89;36.92;101776.63;5141343;27;45384;-83
2022/07/18 07:48:07;;;;;;;;;8.00;8.00;;;;;27.94;36.72;101764.16;5126922;27;46341;-84
2022/07/18 07:50:33;;;;;;;;;14.50;10.75;;;;;28.00;36.65;101760.53;5119193;27;45811;-84
2022/07/18 07:53:00;;;;;;;;;14.00;10.00;;;;;28.08;36.53;101761.34;5140780;27;45300;-86
2022/07/18 07:55:26;;;;;;;;;9.75;9.00;;;;;28.09;36.25;101760.44;5141051;27;45476;-84
2022/07/18 07:57:52;;;;;;;;;13.00;10.50;;;;;28.16;35.87;101763.03;5140396;27;45439;-84
2022/07/18 08:00:18;;;;;;;;;13.25;11.25;;;;;28.20;36.04;101765.63;5140735;27;45396;-84
2022/07/18 08:02:58;;;;;;;;;13.00;9.00;;;;;28.27;35.77;101762.00;5141407;27;45423;-84
2022/07/18 08:05:24;;;;;;;;;10.00;7.50;;;;;28.31;35.79;101768.16;5141945;27;45442;-85
2022/07/18 08:07:50;;;;;;;;;11.75;8.00;;;;;28.34;35.54;101765.44;5141351;27;45516;-81
2022/07/18 08:10:16;;;;;;;;;11.00;11.00;;;;;28.39;35.85;101765.38;5139822;27;45370;-81
2022/07/18 08:12:42;;;;;;;;;12.75;10.25;;;;;28.44;35.87;101760.84;5140315;27;45424;-83
2022/07/18 08:15:10;;;;;;;;;15.00;9.75;;;;;28.48;35.41;101756.34;5140229;27;45480;-81
2022/07/18 08:17:36;;;;;;;;;11.50;9.75;;;;;28.52;34.73;101760.72;5138992;27;46007;-82
2022/07/18 08:20:02;;;;;;;;;7.25;7.25;;;;;28.56;35.22;101758.00;5139320;27;45318;-82
2022/07/18 08:22:27;;;;;;;;;6.75;6.25;;;;;28.58;35.27;101756.19;5139488;27;45392;-82
2022/07/18 08:24:53;;;;;;;;;8.25;7.50;;;;;28.63;34.78;101747.22;5140174;27;45214;-82
2022/07/18 08:27:18;;;;;;;;;13.25;8.75;;;;;28.66;34.62;101747.19;5139620;27;46016;-82
2022/07/18 08:29:44;;;;;;;;;9.25;7.50;;;;;28.72;35.06;101755.13;5106318;27;45551;-82
2022/07/18 08:32:10;;;;;;;;;9.75;7.00;;;;;28.76;35.82;101763.97;5100032;27;45370;-81
2022/07/18 08:34:35;;;;;;;;;10.00;8.50;;;;;28.77;35.62;101760.41;5132856;27;45611;-82
2022/07/18 08:37:01;;;;;;;;;8.00;7.00;;;;;28.81;35.81;101762.09;5139104;27;45634;-82
2022/07/18 08:39:26;;;;;;;;;9.00;7.00;;;;;28.82;34.64;101759.41;5139180;27;45316;-81
2022/07/18 08:41:54;;;;;;;;;10.00;7.75;;;;;28.86;35.06;101758.44;5138503;27;45352;-82
2022/07/18 08:44:21;;;;;;;;;9.00;8.25;;;;;28.89;33.54;101762.81;5139765;27;45391;-83
2022/07/18 08:46:51;;;;;;;;;14.75;13.00;;;;;28.94;33.03;101758.31;5139035;27;45344;-81
2022/07/18 08:49:17;;;;;;;;;10.50;10.00;;;;;28.96;33.22;101753.84;5139240;27;45345;-81
2022/07/18 08:51:43;;;;;;;;;11.50;10.50;;;;;29.00;32.78;101760.84;5139151;27;45396;-81
2022/07/18 08:54:10;;;;;;;;;11.50;10.00;;;;;29.06;32.20;101759.88;5120950;27;45791;-82
2022/07/18 08:56:36;;;;;;;;;12.00;9.75;;;;;29.09;31.92;101757.16;5139402;27;46256;-82
2022/07/18 08:59:03;;;;;;;;;12.00;8.75;;;;;29.12;32.53;101757.13;5139448;27;45686;-81
2022/07/18 09:01:31;;;;;;;;;10.75;8.25;;;;;29.16;31.64;101757.94;5138920;27;45346;-82
2022/07/18 09:04:14;;;;;;;;;5.50;5.50;;;;;29.20;31.18;101746.31;5139264;27;45419;-82
2022/07/18 09:06:45;;;;;;;;;6.00;6.00;;;;;29.23;31.17;101754.25;5138791;27;46457;-83
2022/07/18 09:09:13;;;;;;;;;7.75;6.75;;;;;29.28;31.22;101754.16;5138982;27;45678;-81
2022/07/18 09:12:01;;;;;;;;;7.25;7.00;;;;;29.31;31.02;101748.75;5099665;27;45486;-82
2022/07/18 09:14:44;;;;;;;;;7.25;7.25;;;;;29.36;31.33;101751.38;5100078;27;45526;-81
2022/07/18 09:17:12;;;;;;;;;8.00;8.00;;;;;29.43;31.03;101755.69;5131238;27;45431;-82
2022/07/18 09:19:55;;;;;;;;;11.00;11.00;;;;;29.44;30.91;101752.09;5118740;27;45452;-83
2022/07/18 09:22:23;;;;;;;;;9.00;9.00;;;;;29.49;30.05;101755.56;5118929;27;45898;-83
2022/07/18 09:24:57;;;;;;;;;7.25;7.00;;;;;29.56;30.28;101753.66;5118828;27;45284;-82
2022/07/18 09:27:34;;;;;;;;;8.25;7.75;;;;;29.57;30.14;101750.09;5125716;27;45550;-81
2022/07/18 09:30:20;;;;;;;;;10.50;8.50;;;;;29.61;30.15;101752.66;5139228;27;45323;-81
2022/07/18 09:33:03;;;;;;;;;9.00;7.25;;;;;29.70;30.86;101758.72;5138399;27;45527;-82
2022/07/18 09:35:54;;;;;;;;;8.50;7.75;;;;;29.71;31.21;101756.00;5138418;27;45294;-81
2022/07/18 09:38:28;;;;;;;;;7.00;6.25;;;;;29.70;31.26;101759.59;5109525;27;46871;-80
2022/07/18 09:40:54;;;;;;;;;7.50;7.50;;;;;29.75;29.83;101762.19;5138431;27;45674;-82
2022/07/18 09:43:23;;;;;;;;;6.75;6.50;;;;;29.80;30.44;101752.28;5138524;27;45395;-83
2022/07/18 09:45:55;;;;;;;;;8.00;7.25;;;;;29.83;30.99;101751.34;5138398;27;45263;-83
2022/07/18 09:48:27;;;;;;;;;8.00;8.00;;;;;29.83;31.00;101757.56;5138386;27;47225;-82
2022/07/18 09:50:55;;;;;;;;;5.50;5.50;;;;;29.85;30.47;101755.75;5138314;27;45291;-82
2022/07/18 09:53:26;;;;;;;;;6.00;6.00;;;;;29.87;30.86;101756.56;5137863;27;45337;-82
2022/07/18 09:56:07;;;;;;;;;6.00;6.00;;;;;29.87;31.22;101748.56;5119847;27;45743;-81
2022/07/18 09:58:38;;;;;;;;;8.25;8.00;;;;;29.90;31.10;101747.63;5137881;27;45431;-82
2022/07/18 10:01:07;;;;;;;;;6.50;6.50;;;;;29.95;30.51;101746.66;5138050;27;45331;-80
2022/07/18 10:03:33;;;;;;;;;8.50;6.25;;;;;29.99;30.77;101741.22;5137745;27;45359;-81
2022/07/18 10:06:00;;;;;;;;;7.00;6.50;;;;;30.02;31.13;101738.50;5138377;27;45353;-81
2022/07/18 10:08:28;;;;;;;;;11.25;6.75;;;;;30.03;30.95;101743.81;5137727;27;45433;-82
2022/07/18 10:10:55;;;;;;;;;4.75;4.75;;;;;30.07;30.56;101739.28;5138084;27;45703;-83
2022/07/18 10:13:23;;;;;;;;;6.25;5.50;;;;;30.10;30.78;101731.19;5138341;27;45323;-81
2022/07/18 10:15:50;;;;;;;;;6.50;5.50;;;;;30.13;30.39;101723.13;5138028;27;45396;-82
2022/07/18 10:18:21;;;;;;;;;8.00;6.00;;;;;30.20;29.72;101719.38;5137806;27;45356;-82
2022/07/18 10:21:12;;;;;;;;;6.75;6.50;;;;;30.29;29.60;101720.09;5137247;27;45721;-83
2022/07/18 10:23:37;;;;;;;;;7.25;6.00;;;;;30.39;29.50;101727.00;5137735;27;45241;-81
2022/07/18 10:26:06;;;;;;;;;6.00;4.25;;;;;30.42;29.66;101726.88;5138148;27;45495;-81
2022/07/18 10:28:32;;;;;;;;;5.25;5.25;;;;;30.44;30.20;101721.53;5137474;27;46216;-81
2022/07/18 10:31:14;;;;;;;;;7.50;6.50;;;;;30.46;30.28;101719.66;5137711;27;45456;-83
2022/07/18 10:33:48;;;;;;;;;8.50;8.00;;;;;30.55;30.19;101716.84;5137955;27;45459;-79
2022/07/18 10:36:15;;;;;;;;;10.00;7.00;;;;;30.64;29.66;101718.38;5125563;27;45266;-85
2022/07/18 10:39:05;;;;;;;;;7.50;6.75;;;;;30.73;29.82;101723.47;5125854;27;46146;-87
2022/07/18 10:41:31;;;;;;;;;6.25;6.25;;;;;30.73;29.91;101707.44;5116386;27;45673;-80
2022/07/18 10:43:57;;;;;;;;;7.00;7.00;;;;;30.81;30.21;101709.94;5098413;27;45320;-85
2022/07/18 10:46:22;;;;;;;;;7.75;6.50;;;;;30.82;30.33;101714.38;5117360;27;45234;-84
2022/07/18 10:48:49;;;;;;;;;9.25;8.00;;;;;30.87;29.90;101710.66;5116516;27;45330;-86
2022/07/18 10:51:16;;;;;;;;;6.50;6.50;;;;;30.91;30.20;101707.91;5117109;27;45346;-80
2022/07/18 10:53:53;;;;;;;;;7.00;6.00;;;;;30.98;29.88;101715.72;5117726;27;45414;-90
2022/07/18 10:56:28;;;;;;;;;5.75;5.75;;;;;31.04;29.64;101718.22;5099779;27;45532;-88
2022/07/18 10:58:58;;;;;;;;;9.75;9.75;;;;;31.11;29.51;101718.03;5118258;27;46482;-85
2022/07/18 11:01:25;;;;;;;;;8.50;8.50;;;;;31.11;30.03;101715.38;5123029;27;45265;-84
2022/07/18 11:04:26;;;;;;;;;7.25;7.25;;;;;31.19;29.33;101716.97;5140418;27;45340;-80
2022/07/18 11:07:10;;;;;;;;;6.25;6.25;;;;;31.33;29.44;101716.56;5140460;27;45490;-77
2022/07/18 11:09:39;;;;;;;;;8.00;8.00;;;;;31.35;29.40;101711.19;5140359;27;46180;-79
2022/07/18 11:12:18;;;;;;;;;8.75;8.75;;;;;31.36;29.91;101704.94;5140744;27;45482;-77
2022/07/18 11:15:00;;;;;;;;;6.75;6.75;;;;;31.35;29.85;101708.53;5140771;27;45338;-76
2022/07/18 11:17:53;;;;;;;;;7.00;5.75;;;;;31.37;29.96;101712.00;5140579;27;45609;-77
2022/07/18 11:20:38;;;;;;;;;7.00;6.00;;;;;31.46;28.07;101711.78;5141895;27;45234;-75
2022/07/18 11:23:24;;;;;;;;;8.00;7.00;;;;;31.60;27.77;101703.31;5140513;27;45234;-78
2022/07/18 11:25:54;;;;;;;;;5.50;5.50;;;;;31.74;27.60;101702.09;5140585;27;45212;-78
2022/07/18 11:28:20;;;;;;;;;6.50;5.75;;;;;31.83;27.54;101695.53;5140423;27;45387;-77
2022/07/18 11:31:08;;;;;;;;;8.50;7.00;;;;;31.86;27.89;101695.47;5140581;27;46297;-77
2022/07/18 11:33:38;;;;;;;;;7.75;7.00;;;;;31.80;28.05;101692.03;5140574;27;45174;-79
2022/07/18 11:36:15;;;;;;;;;6.00;6.00;;;;;31.76;28.24;101694.84;5141654;27;45417;-81
2022/07/18 11:38:51;;;;;;;;;6.25;5.25;;;;;31.69;29.06;101693.28;5142748;27;45210;-82
2022/07/18 11:41:19;;;;;;;;;5.75;5.00;;;;;31.70;28.61;101697.72;5146123;27;45364;-79
2022/07/18 11:43:46;;;;;;;;;6.00;6.00;;;;;31.77;28.08;101691.25;5131539;27;45366;-81
2022/07/18 11:46:14;;;;;;;;;6.75;6.75;;;;;31.84;28.57;101687.50;5121526;27;45379;-89
2022/07/18 11:48:41;;;;;;;;;8.75;7.00;;;;;31.80;28.34;101678.63;5126939;27;45648;-86
2022/07/18 11:51:19;;;;;;;;;6.75;6.75;;;;;31.86;28.17;101680.25;5125195;27;45994;-86
2022/07/18 11:53:46;;;;;;;;;6.75;6.75;;;;;31.92;27.61;101674.72;5128610;27;45214;-85
2022/07/18 11:56:13;;;;;;;;;8.25;7.00;;;;;31.96;27.93;101673.69;5113625;27;45419;-80
2022/07/18 11:58:41;;;;;;;;;7.25;7.00;;;;;32.07;27.28;101672.50;5121578;27;45633;-82
2022/07/18 12:01:07;;;;;;;;;6.00;6.00;;;;;32.16;27.38;101679.34;5140048;27;45294;-79
2022/07/18 12:03:39;;;;;;;;;8.00;8.00;;;;;32.22;26.67;101668.44;5140096;27;45949;-79
2022/07/18 12:06:22;;;;;;;;;6.00;6.00;;;;;32.26;27.99;101668.31;5121996;27;45423;-80
2022/07/18 12:08:52;;;;;;;;;6.00;6.00;;;;;32.29;27.50;101670.00;5140169;27;45474;-79
2022/07/18 12:11:29;;;;;;;;;7.50;7.50;;;;;32.36;27.20;101662.66;5140347;27;45369;-79
2022/07/18 12:14:02;;;;;;;;;5.00;5.00;;;;;32.39;27.67;101660.75;5139977;27;45879;-79
2022/07/18 12:16:42;;;;;;;;;8.00;7.00;;;;;32.44;27.48;101662.41;5140339;27;45283;-81
2022/07/18 12:19:13;;;;;;;;;7.25;7.25;;;;;32.44;27.15;101657.91;5126786;27;45445;-83
2022/07/18 12:21:56;;;;;;;;;5.25;5.25;;;;;32.49;26.05;101653.28;5119572;27;45930;-83
2022/07/18 12:24:32;;;;;;;;;7.50;7.00;;;;;32.62;26.24;101650.13;5119020;27;45319;-82
2022/07/18 12:27:20;;;;;;;;;6.25;6.25;;;;;32.72;26.87;101651.59;5119152;27;45279;-83
2022/07/18 12:30:12;;;;;;;;;7.00;7.00;;;;;32.81;26.38;101643.25;5119165;27;45386;-83
2022/07/18 12:32:51;;;;;;;;;6.25;6.25;;;;;32.96;26.00;101646.28;5118401;27;46306;-87
2022/07/18 12:35:32;;;;;;;;;5.75;5.25;;;;;33.10;25.34;101644.00;5119858;27;45321;-85
2022/07/18 12:38:01;;;;;;;;;6.25;6.25;;;;;33.18;24.89;101632.97;5100275;27;45348;-84
2022/07/18 12:40:38;;;;;;;;;5.50;5.50;;;;;33.32;24.24;101632.44;5119015;27;45361;-86
2022/07/18 12:43:10;;;;;;;;;5.75;5.75;;;;;33.51;24.18;101637.13;5121547;27;45340;-85
2022/07/18 12:45:37;;;;;;;;;5.75;5.25;;;;;33.54;23.82;101631.66;5100060;27;45770;-84
2022/07/18 12:48:05;;;;;;;;;6.00;5.00;;;;;33.55;25.20;101626.22;5118373;27;45587;-84
2022/07/18 12:50:30;;;;;;;;;3.75;3.75;;;;;33.45;25.00;101627.50;5139057;27;45305;-85
2022/07/18 12:52:57;;;;;;;;;3.25;3.25;;;;;33.51;22.81;101626.41;5146872;27;45587;-85
2022/07/18 12:55:23;;;;;;;;;3.00;3.00;;;;;33.71;22.37;101625.63;5120257;27;45616;-77
2022/07/18 12:57:49;;;;;;;;;4.75;4.75;;;;;33.84;22.50;101618.81;5139026;27;45203;-82
2022/07/18 13:00:15;;;;;;;;;5.25;5.25;;;;;33.99;23.26;101627.19;5139951;27;45633;-83
2022/07/18 13:02:44;;;;;;;;;5.00;5.00;;;;;34.01;23.52;101620.84;5138511;27;45951;-82
2022/07/18 13:05:09;;;;;;;;;4.25;4.00;;;;;33.94;23.87;101620.22;5139478;27;45655;-84
2022/07/18 13:07:35;;;;;;;;;4.25;4.25;;;;;33.86;23.76;101614.25;5141779;27;45306;-84
2022/07/18 13:10:01;;;;;;;;;3.25;3.25;;;;;33.80;23.64;101619.88;5140333;27;45373;-85
2022/07/18 13:12:27;;;;;;;;;5.00;5.00;;;;;33.87;23.13;101607.09;5137776;27;45493;-84
2022/07/18 13:14:53;;;;;;;;;4.50;4.50;;;;;33.92;23.00;101607.78;5122367;27;45366;-83
2022/07/18 13:17:18;;;;;;;;;5.25;4.00;;;;;34.08;22.94;101608.91;5118276;27;45219;-85
2022/07/18 13:19:44;;;;;;;;;5.00;4.00;;;;;34.17;23.59;101602.28;5117911;27;45557;-86
2022/07/18 13:22:10;;;;;;;;;3.75;3.75;;;;;34.13;23.34;101605.13;5118277;27;45696;-84
2022/07/18 13:24:39;;;;;;;;;5.25;5.25;;;;;34.12;23.47;101592.66;5117462;27;45448;-80
2022/07/18 13:27:05;;;;;;;;;5.50;5.50;;;;;34.11;24.05;101599.81;5117695;27;45369;-80
2022/07/18 13:29:31;;;;;;;;;6.00;5.00;;;;;34.06;23.84;101591.09;5117245;27;45436;-80
2022/07/18 13:31:56;;;;;;;;;3.75;3.75;;;;;34.10;24.04;101590.91;5117792;27;46131;-79
2022/07/18 13:34:22;;;;;;;;;4.00;4.00;;;;;34.13;23.38;101589.00;5116862;27;45266;-80
2022/07/18 13:36:52;;;;;;;;;6.75;5.25;;;;;34.16;23.90;101586.19;5099313;27;45249;-80
2022/07/18 13:39:19;;;;;;;;;5.75;5.25;;;;;34.17;22.85;101579.88;5100135;27;45535;-88
2022/07/18 13:41:46;;;;;;;;;7.75;6.25;;;;;34.46;22.49;101575.97;5120208;27;46156;-84
2022/07/18 13:44:12;;;;;;;;;4.75;3.75;;;;;34.75;22.22;101579.16;5118829;27;45672;-89
2022/07/18 13:46:40;;;;;;;;;4.25;4.25;;;;;35.00;21.94;101578.94;5117233;27;45421;-82
2022/07/18 13:49:11;;;;;;;;;4.50;3.50;;;;;35.26;20.88;101574.16;5098851;27;45580;-83
2022/07/18 13:51:37;;;;;;;;;4.50;3.50;;;;;35.46;20.99;101573.25;5116868;27;46161;-83
2022/07/18 13:54:05;;;;;;;;;5.25;4.00;;;;;35.61;21.51;101573.44;5117512;27;45758;-79
2022/07/18 13:56:31;;;;;;;;;4.50;4.50;;;;;35.77;21.23;101568.16;5116974;27;45451;-80
2022/07/18 13:58:57;;;;;;;;;4.00;4.00;;;;;35.90;21.28;101558.50;5117655;27;45438;-81
2022/07/18 14:01:23;;;;;;;;;5.00;4.00;;;;;36.08;21.10;101561.22;5122290;27;45368;-86
2022/07/18 14:03:49;;;;;;;;;4.25;4.25;;;;;36.23;21.58;101556.91;5137089;27;45373;-87
2022/07/18 14:06:15;;;;;;;;;5.00;4.00;;;;;36.41;20.57;101555.03;5140171;27;45308;-86
2022/07/18 14:08:41;;;;;;;;;5.00;4.00;;;;;36.57;20.84;101541.63;5138352;27;45248;-84
2022/07/18 14:11:06;;;;;;;;;4.25;4.25;;;;;36.77;20.46;101548.66;5138061;27;45251;-85
2022/07/18 14:13:32;;;;;;;;;6.00;6.00;;;;;36.92;20.50;101543.41;5137874;27;45423;-85
2022/07/18 14:15:58;;;;;;;;;4.00;4.00;;;;;37.13;20.01;101539.50;5142863;27;45181;-84
2022/07/18 14:18:24;;;;;;;;;5.50;5.00;;;;;38.47;20.44;101531.75;5138494;27;45328;-81
2022/07/18 14:20:50;;;;;;;;;4.00;4.00;;;;;41.55;18.59;101524.38;5105495;27;46397;-79
2022/07/18 14:23:16;;;;;;;;;3.75;3.00;;;;;44.36;16.05;101528.88;5116906;27;45377;-78
2022/07/18 14:25:41;;;;;;;;;6.75;4.00;;;;;46.64;15.42;101536.09;5116630;27;45313;-78
2022/07/18 14:28:07;;;;;;;;;4.25;4.25;;;;;48.54;14.08;101539.69;5117128;27;45521;-78
2022/07/18 14:30:33;;;;;;;;;4.00;4.00;;;;;50.14;13.37;101535.97;5116404;27;46120;-79
2022/07/18 14:32:59;;;;;;;;;5.00;5.00;;;;;51.46;12.85;101535.31;5116790;27;45328;-79
2022/07/18 14:35:25;;;;;;;;;5.00;3.25;;;;;52.55;11.87;101534.03;5098465;27;45432;-79
2022/07/18 14:37:51;;;;;;;;;5.50;4.50;;;;;53.50;10.36;101533.16;5117295;27;45560;-79
2022/07/18 14:40:16;;;;;;;;;4.00;4.00;;;;;54.26;11.10;101526.91;5117029;27;45372;-79
2022/07/18 14:42:42;;;;;;;;;3.50;3.50;;;;;54.95;10.89;101528.88;5101512;27;45313;-79
2022/07/18 14:45:09;;;;;;;;;5.00;4.00;;;;;55.37;9.97;101521.25;5120430;27;45389;-80
2022/07/18 14:47:35;;;;;;;;;5.50;5.50;;;;;55.82;10.33;101517.78;5120262;27;45549;-80
2022/07/18 14:50:06;;;;;;;;;3.75;3.75;;;;;56.30;9.18;101527.75;5119986;27;45459;-80
2022/07/18 14:52:32;;;;;;;;;5.25;5.00;;;;;56.66;9.18;101519.88;5119910;27;45876;-80
2022/07/18 14:54:58;;;;;;;;;4.50;4.50;;;;;56.76;8.74;101509.09;5120299;27;45340;-80
2022/07/18 14:57:23;;;;;;;;;3.50;3.50;;;;;56.42;9.83;101514.00;5120312;27;45579;-79
2022/07/18 14:59:49;;;;;;;;;6.25;4.25;;;;;55.82;9.12;101512.25;5101319;27;46977;-80
2022/07/18 15:02:15;;;;;;;;;5.00;5.00;;;;;54.78;10.14;101508.97;5120092;27;45318;-80
2022/07/18 15:04:41;;;;;;;;;4.25;4.25;;;;;53.67;9.47;101498.63;5120008;27;45484;-79
2022/07/18 15:07:06;;;;;;;;;3.75;3.50;;;;;52.72;10.85;101489.59;5101933;27;45471;-80
2022/07/18 15:09:32;;;;;;;;;5.25;3.00;;;;;52.06;10.35;101493.16;5119732;27;45771;-79
2022/07/18 15:11:58;;;;;;;;;5.25;5.00;;;;;51.37;10.79;101486.75;5119916;27;45384;-80
2022/07/18 15:14:23;;;;;;;;;5.75;2.25;;;;;50.73;10.95;101487.88;5120164;27;45366;-80
2022/07/18 15:16:50;;;;;;;;;4.00;3.50;;;;;50.16;11.22;101485.22;5120299;27;45354;-80
2022/07/18 15:19:16;;;;;;;;;5.75;4.75;;;;;49.77;11.69;101482.34;5119619;27;46250;-80
2022/07/18 15:21:41;;;;;;;;;3.00;3.00;;;;;49.36;11.73;101478.53;5119655;27;45226;-79
2022/07/18 15:24:07;;;;;;;;;4.50;3.75;;;;;48.96;11.53;101474.72;5120038;27;45280;-80
2022/07/18 15:26:34;;;;;;;;;4.50;4.50;;;;;48.63;11.46;101470.00;5119699;27;45183;-79
2022/07/18 15:29:00;;;;;;;;;4.50;4.00;;;;;48.39;12.16;101467.16;5119465;27;45423;-79
2022/07/18 15:31:25;;;;;;;;;5.50;4.50;;;;;48.09;11.96;101463.91;5119442;27;45415;-80
2022/07/18 15:33:51;;;;;;;;;4.00;3.25;;;;;47.81;12.44;101458.56;5119972;27;45436;-79
2022/07/18 15:36:17;;;;;;;;;5.00;3.75;;;;;47.61;12.65;101452.44;5119966;27;45521;-80
2022/07/18 15:38:42;;;;;;;;;4.75;3.25;;;;;47.36;13.00;101449.47;5119116;27;46197;-79
2022/07/18 15:41:10;;;;;;;;;6.00;6.00;;;;;47.01;12.91;101453.94;5119388;27;45451;-79
2022/07/18 15:43:36;;;;;;;;;15.50;14.00;;;;;46.63;12.80;101441.22;5119279;27;45369;-80
2022/07/18 15:46:02;;;;;;;;;6.00;5.00;;;;;46.30;13.27;101434.44;5119914;27;45219;-80
2022/07/18 15:48:28;;;;;;;;;5.00;5.00;;;;;46.11;13.33;101428.03;5118931;27;45337;-79
2022/07/18 15:50:54;;;;;;;;;4.75;3.25;;;;;46.03;13.46;101437.00;5118845;27;45343;-81
2022/07/18 15:53:19;;;;;;;;;5.00;5.00;;;;;45.93;13.84;101419.72;5119685;27;45308;-81
2022/07/18 15:55:45;;;;;;;;;5.25;5.25;;;;;45.95;13.66;101430.53;5120239;27;45251;-87
2022/07/18 15:58:11;;;;;;;;;4.25;4.25;;;;;45.76;13.26;101421.38;5122710;27;45452;-86
2022/07/18 16:00:36;;;;;;;;;4.50;4.50;;;;;45.64;13.46;101422.56;5120663;27;45337;-78
2022/07/18 16:03:02;;;;;;;;;5.75;5.75;;;;;45.54;13.61;101420.66;5119173;27;45348;-77
2022/07/18 16:05:28;;;;;;;;;13.75;12.25;;;;;45.33;13.47;101409.94;5119128;27;45412;-77
2022/07/18 16:07:53;;;;;;;;;7.00;5.50;;;;;45.21;14.38;101409.19;5119521;27;45449;-79
2022/07/18 16:10:19;;;;;;;;;9.00;7.00;;;;;45.13;14.65;101415.38;5119076;27;45434;-80
2022/07/18 16:12:46;;;;;;;;;9.25;8.00;;;;;45.07;14.03;101415.09;5118889;27;45342;-80
2022/07/18 16:15:11;;;;;;;;;5.50;5.50;;;;;44.98;14.72;101409.47;5119339;27;45646;-79
2022/07/18 16:17:37;;;;;;;;;4.75;4.75;;;;;44.94;14.94;101404.44;5100345;27;47511;-78
2022/07/18 16:20:04;;;;;;;;;6.00;6.00;;;;;44.93;15.01;101408.16;5118799;27;45474;-79
2022/07/18 16:22:30;;;;;;;;;5.75;5.75;;;;;44.83;14.19;101399.97;5118847;27;45262;-78
2022/07/18 16:24:55;;;;;;;;;4.00;4.00;;;;;44.66;14.71;101401.50;5119281;27;45286;-79
2022/07/18 16:27:21;;;;;;;;;4.00;4.00;;;;;44.57;15.31;101394.16;5119447;27;46470;-79
2022/07/18 16:29:46;;;;;;;;;7.00;7.00;;;;;44.48;14.96;101382.22;5118687;27;45433;-80
2022/07/18 16:32:13;;;;;;;;;6.00;6.00;;;;;44.45;14.38;101391.56;5128134;27;45265;-78
2022/07/18 16:34:39;;;;;;;;;12.50;12.50;;;;;44.38;15.17;101387.63;5121570;27;45437;-80
2022/07/18 16:37:05;;;;;;;;;7.25;7.25;;;;;44.23;14.40;101387.13;5130929;27;46234;-80
2022/07/18 16:39:30;;;;;;;;;4.00;4.00;;;;;43.95;15.30;101384.16;5123939;27;45340;-80
2022/07/18 16:41:56;;;;;;;;;5.25;4.25;;;;;43.71;14.58;101388.03;5119849;27;45149;-77
2022/07/18 16:44:22;;;;;;;;;5.25;5.25;;;;;43.49;16.17;101377.25;5122472;27;45272;-79
2022/07/18 16:46:48;;;;;;;;;8.00;5.75;;;;;43.35;15.79;101381.19;5121085;27;45477;-79
2022/07/18 16:49:14;;;;;;;;;6.25;6.25;;;;;43.26;15.55;101382.84;5101857;27;45612;-81
2022/07/18 16:51:41;;;;;;;;;5.00;5.00;;;;;43.18;15.84;101374.47;5118379;27;45290;-82
2022/07/18 16:54:07;;;;;;;;;6.00;5.75;;;;;43.13;15.91;101374.84;5118553;27;45377;-79
2022/07/18 16:56:32;;;;;;;;;8.75;7.00;;;;;43.04;15.34;101372.91;5117996;27;46161;-79
2022/07/18 16:58:58;;;;;;;;;4.00;2.75;;;;;42.92;15.67;101366.66;5118261;27;45426;-84
2022/07/18 17:01:28;;;;;;;;;46.00;37.50;;;;;42.79;15.73;101366.81;5119086;27;45424;-81
2022/07/18 17:03:54;;;;;;;;;12.50;10.75;;;;;42.66;15.80;101364.22;5117648;27;45360;-79
2022/07/18 17:06:20;;;;;;;;;7.25;7.25;;;;;42.53;16.04;101362.53;5119661;27;45293;-77
2022/07/18 17:08:46;;;;;;;;;7.50;6.50;;;;;42.47;15.91;101367.59;5119399;27;45306;-80
2022/07/18 17:11:15;;;;;;;;;8.75;7.00;;;;;42.32;16.17;101358.81;5118512;27;45420;-80
2022/07/18 17:13:41;;;;;;;;;4.00;4.00;;;;;42.26;16.32;101354.75;5119151;27;45405;-80
2022/07/18 17:16:08;;;;;;;;;6.75;6.50;;;;;42.18;16.39;101349.94;5120474;27;45301;-79
2022/07/18 17:18:34;;;;;;;;;13.00;10.00;;;;;42.12;16.43;101355.88;5119485;27;45192;-82
2022/07/18 17:21:02;;;;;;;;;10.50;8.75;;;;;41.96;17.12;101355.38;5118674;27;45301;-78
2022/07/18 17:23:28;;;;;;;;;8.75;8.75;;;;;41.83;16.76;101350.94;5099779;27;45351;-78
2022/07/18 17:25:54;;;;;;;;;5.50;5.25;;;;;41.73;16.76;101350.78;5118446;27;46514;-78
2022/07/18 17:28:20;;;;;;;;;5.25;5.25;;;;;41.65;16.75;101358.69;5118195;27;45396;-78
2022/07/18 17:30:46;;;;;;;;;5.00;5.00;;;;;41.55;16.82;101355.81;5117866;27;45251;-77
2022/07/18 17:33:12;;;;;;;;;8.00;5.75;;;;;41.48;16.63;101354.59;5118344;27;45455;-77
2022/07/18 17:35:39;;;;;;;;;7.00;5.75;;;;;41.37;16.94;101352.66;5117873;27;46217;-80
2022/07/18 17:38:06;;;;;;;;;6.00;6.00;;;;;41.26;16.65;101355.34;5118487;27;45232;-82
2022/07/18 17:40:32;;;;;;;;;7.00;6.25;;;;;41.06;17.05;101346.91;5118006;27;45332;-80
2022/07/18 17:42:58;;;;;;;;;5.00;5.00;;;;;40.92;17.18;101345.22;5118688;27;45467;-80
2022/07/18 17:45:26;;;;;;;;;8.25;6.75;;;;;40.79;17.14;101347.13;5100026;27;46068;-81
2022/07/18 17:47:53;;;;;;;;;5.25;5.25;;;;;40.64;17.17;101350.03;5120260;27;45650;-84